sensor_id;sensor_type;location;lat;lon;timestamp;temperature;humidity
4187;DHT22;2107;52.306;10.484;2022-11-03T00:01:30;4.10;99.90
4187;DHT22;2107;52.306;10.484;2022-11-03T00:03:57;4.00;99.90
4187;DHT22;2107;52.306;10.484;2022-11-03T00:06:24;4.10;99.90
4187;DHT22;2107;52.306;10.484;2022-11-03T00:08:52;4.20;99.90
4187;DHT22;2107;52.306;10.484;2022-11-03T00:11:23;4.50;99.90
4187;DHT22;2107;52.306;10.484;2022-11-03T00:13:49;4.80;99.90
4187;DHT22;2107;52.306;10.484;2022-11-03T00:16:16;4.80;99.90
4187;DHT22;2107;52.306;10.484;2022-11-03T00:18:43;4.70;99.90
4187;DHT22;2107;52.306;10.484;2022-11-03T00:21:12;4.70;99.90
4187;DHT22;2107;52.306;10.484;2022-11-03T00:23:40;4.80;99.90
4187;DHT22;2107;52.306;10.484;2022-11-03T00:26:11;5.10;99.90
4187;DHT22;2107;52.306;10.484;2022-11-03T00:28:39;5.30;99.90
4187;DHT22;2107;52.306;10.484;2022-11-03T00:31:08;5.30;99.90
4187;DHT22;2107;52.306;10.484;2022-11-03T00:33:37;5.30;99.90
4187;DHT22;2107;52.306;10.484;2022-11-03T00:36:05;5.40;99.90
4187;DHT22;2107;52.306;10.484;2022-11-03T00:38:33;5.40;99.90
4187;DHT22;2107;52.306;10.484;2022-11-03T00:41:01;5.40;99.90
4187;DHT22;2107;52.306;10.484;2022-11-03T00:43:31;5.70;99.90
4187;DHT22;2107;52.306;10.484;2022-11-03T00:45:59;5.80;99.90
4187;DHT22;2107;52.306;10.484;2022-11-03T00:48:26;5.90;99.90
4187;DHT22;2107;52.306;10.484;2022-11-03T00:51:05;6.00;99.90
4187;DHT22;2107;52.306;10.484;2022-11-03T00:53:34;6.00;99.90
4187;DHT22;2107;52.306;10.484;2022-11-03T00:56:01;6.10;99.90
4187;DHT22;2107;52.306;10.484;2022-11-03T00:58:29;6.20;99.90
4187;DHT22;2107;52.306;10.484;2022-11-03T01:01:01;6.40;99.90
4187;DHT22;2107;52.306;10.484;2022-11-03T01:03:30;6.40;99.90
4187;DHT22;2107;52.306;10.484;2022-11-03T01:05:57;6.40;99.90
4187;DHT22;2107;52.306;10.484;2022-11-03T01:08:42;6.40;99.90
4187;DHT22;2107;52.306;10.484;2022-11-03T01:11:11;6.40;99.90
4187;DHT22;2107;52.306;10.484;2022-11-03T01:13:57;6.40;99.90
4187;DHT22;2107;52.306;10.484;2022-11-03T01:16:24;6.60;99.90
4187;DHT22;2107;52.306;10.484;2022-11-03T01:18:51;6.60;99.90
4187;DHT22;2107;52.306;10.484;2022-11-03T01:21:18;6.80;99.90
4187;DHT22;2107;52.306;10.484;2022-11-03T01:23:45;6.90;99.90
4187;DHT22;2107;52.306;10.484;2022-11-03T01:26:12;6.90;99.90
4187;DHT22;2107;52.306;10.484;2022-11-03T01:28:41;7.10;99.90
4187;DHT22;2107;52.306;10.484;2022-11-03T01:31:11;7.10;99.90
4187;DHT22;2107;52.306;10.484;2022-11-03T01:33:39;7.20;99.90
4187;DHT22;2107;52.306;10.484;2022-11-03T01:36:06;7.30;99.90
4187;DHT22;2107;52.306;10.484;2022-11-03T01:38:34;7.40;99.90
4187;DHT22;2107;52.306;10.484;2022-11-03T01:41:04;7.40;99.90
4187;DHT22;2107;52.306;10.484;2022-11-03T01:43:32;7.40;99.90
4187;DHT22;2107;52.306;10.484;2022-11-03T01:46:03;7.50;99.90
4187;DHT22;2107;52.306;10.484;2022-11-03T01:48:33;7.40;99.90
4187;DHT22;2107;52.306;10.484;2022-11-03T01:51:02;7.60;99.90
4187;DHT22;2107;52.306;10.484;2022-11-03T01:53:31;7.50;99.90
4187;DHT22;2107;52.306;10.484;2022-11-03T01:55:59;7.70;99.90
4187;DHT22;2107;52.306;10.484;2022-11-03T01:58:29;7.80;99.90
4187;DHT22;2107;52.306;10.484;2022-11-03T02:00:58;7.90;99.90
4187;DHT22;2107;52.306;10.484;2022-11-03T02:03:27;7.80;99.90
4187;DHT22;2107;52.306;10.484;2022-11-03T02:05:58;7.80;99.90
4187;DHT22;2107;52.306;10.484;2022-11-03T02:08:29;7.90;99.90
4187;DHT22;2107;52.306;10.484;2022-11-03T02:10:58;7.90;99.90
4187;DHT22;2107;52.306;10.484;2022-11-03T02:13:45;7.80;99.90
4187;DHT22;2107;52.306;10.484;2022-11-03T02:16:12;7.90;99.90
4187;DHT22;2107;52.306;10.484;2022-11-03T02:18:41;7.90;99.90
4187;DHT22;2107;52.306;10.484;2022-11-03T02:21:16;7.90;99.90
4187;DHT22;2107;52.306;10.484;2022-11-03T02:23:49;7.90;99.90
4187;DHT22;2107;52.306;10.484;2022-11-03T02:26:20;7.80;99.90
4187;DHT22;2107;52.306;10.484;2022-11-03T02:28:47;7.70;99.90
4187;DHT22;2107;52.306;10.484;2022-11-03T02:31:16;7.60;99.90
4187;DHT22;2107;52.306;10.484;2022-11-03T02:33:50;7.50;99.90
4187;DHT22;2107;52.306;10.484;2022-11-03T02:36:23;7.60;99.90
4187;DHT22;2107;52.306;10.484;2022-11-03T02:38:57;7.60;99.90
4187;DHT22;2107;52.306;10.484;2022-11-03T02:41:26;7.50;99.90
4187;DHT22;2107;52.306;10.484;2022-11-03T02:43:55;7.60;99.90
4187;DHT22;2107;52.306;10.484;2022-11-03T02:46:23;7.40;99.90
4187;DHT22;2107;52.306;10.484;2022-11-03T02:48:51;7.40;99.90
4187;DHT22;2107;52.306;10.484;2022-11-03T02:51:18;7.30;99.90
4187;DHT22;2107;52.306;10.484;2022-11-03T02:53:50;7.30;99.90
4187;DHT22;2107;52.306;10.484;2022-11-03T02:56:21;7.20;99.90
4187;DHT22;2107;52.306;10.484;2022-11-03T02:58:54;7.20;99.90
4187;DHT22;2107;52.306;10.484;2022-11-03T03:01:27;7.20;99.90
4187;DHT22;2107;52.306;10.484;2022-11-03T03:04:01;7.20;99.90
4187;DHT22;2107;52.306;10.484;2022-11-03T03:06:32;7.10;99.90
4187;DHT22;2107;52.306;10.484;2022-11-03T03:09:04;7.20;99.90
4187;DHT22;2107;52.306;10.484;2022-11-03T03:11:32;7.10;99.90
4187;DHT22;2107;52.306;10.484;2022-11-03T03:14:07;7.10;99.90
4187;DHT22;2107;52.306;10.484;2022-11-03T03:16:41;7.00;99.90
4187;DHT22;2107;52.306;10.484;2022-11-03T03:19:15;6.80;99.90
4187;DHT22;2107;52.306;10.484;2022-11-03T03:21:45;6.70;99.90
4187;DHT22;2107;52.306;10.484;2022-11-03T03:24:17;6.70;99.90
4187;DHT22;2107;52.306;10.484;2022-11-03T03:26:46;6.80;99.90
4187;DHT22;2107;52.306;10.484;2022-11-03T03:29:18;6.90;99.90
4187;DHT22;2107;52.306;10.484;2022-11-03T03:31:50;7.20;99.90
4187;DHT22;2107;52.306;10.484;2022-11-03T03:34:20;7.30;99.90
4187;DHT22;2107;52.306;10.484;2022-11-03T03:36:48;7.40;99.90
4187;DHT22;2107;52.306;10.484;2022-11-03T03:39:17;7.40;99.90
4187;DHT22;2107;52.306;10.484;2022-11-03T03:41:47;7.50;99.90
4187;DHT22;2107;52.306;10.484;2022-11-03T03:44:16;7.60;99.90
4187;DHT22;2107;52.306;10.484;2022-11-03T03:46:46;7.70;99.90
4187;DHT22;2107;52.306;10.484;2022-11-03T03:49:14;7.60;99.90
4187;DHT22;2107;52.306;10.484;2022-11-03T03:51:42;7.50;99.90
4187;DHT22;2107;52.306;10.484;2022-11-03T03:54:09;7.30;99.90
4187;DHT22;2107;52.306;10.484;2022-11-03T03:56:40;7.30;99.90
4187;DHT22;2107;52.306;10.484;2022-11-03T03:59:09;7.30;99.90
4187;DHT22;2107;52.306;10.484;2022-11-03T04:01:37;7.30;99.90
4187;DHT22;2107;52.306;10.484;2022-11-03T04:04:04;7.30;99.90
4187;DHT22;2107;52.306;10.484;2022-11-03T04:06:31;7.30;99.90
4187;DHT22;2107;52.306;10.484;2022-11-03T04:08:58;7.30;99.90
4187;DHT22;2107;52.306;10.484;2022-11-03T04:11:25;7.20;99.90
4187;DHT22;2107;52.306;10.484;2022-11-03T04:14:09;7.20;99.90
4187;DHT22;2107;52.306;10.484;2022-11-03T04:16:54;7.10;99.90
4187;DHT22;2107;52.306;10.484;2022-11-03T04:19:39;7.10;99.90
4187;DHT22;2107;52.306;10.484;2022-11-03T04:22:25;7.10;99.90
4187;DHT22;2107;52.306;10.484;2022-11-03T04:24:52;7.00;99.90
4187;DHT22;2107;52.306;10.484;2022-11-03T04:27:28;6.90;99.90
4187;DHT22;2107;52.306;10.484;2022-11-03T04:29:57;6.90;99.90
4187;DHT22;2107;52.306;10.484;2022-11-03T04:32:28;6.70;99.90
4187;DHT22;2107;52.306;10.484;2022-11-03T04:34:55;6.80;99.90
4187;DHT22;2107;52.306;10.484;2022-11-03T04:37:26;6.70;99.90
4187;DHT22;2107;52.306;10.484;2022-11-03T04:39:55;6.80;99.90
4187;DHT22;2107;52.306;10.484;2022-11-03T04:42:25;6.80;99.90
4187;DHT22;2107;52.306;10.484;2022-11-03T04:44:51;6.80;99.90
4187;DHT22;2107;52.306;10.484;2022-11-03T04:47:18;6.80;99.90
4187;DHT22;2107;52.306;10.484;2022-11-03T04:49:47;6.90;99.90
4187;DHT22;2107;52.306;10.484;2022-11-03T04:52:16;6.90;99.90
4187;DHT22;2107;52.306;10.484;2022-11-03T04:54:45;7.00;99.90
4187;DHT22;2107;52.306;10.484;2022-11-03T04:57:13;6.90;99.90
4187;DHT22;2107;52.306;10.484;2022-11-03T04:59:42;6.90;99.90
4187;DHT22;2107;52.306;10.484;2022-11-03T05:02:13;6.90;99.90
4187;DHT22;2107;52.306;10.484;2022-11-03T05:04:41;6.80;99.90
4187;DHT22;2107;52.306;10.484;2022-11-03T05:07:21;6.80;99.90
4187;DHT22;2107;52.306;10.484;2022-11-03T05:09:49;6.80;99.90
4187;DHT22;2107;52.306;10.484;2022-11-03T05:12:17;6.80;99.90
4187;DHT22;2107;52.306;10.484;2022-11-03T05:14:45;6.90;99.90
4187;DHT22;2107;52.306;10.484;2022-11-03T05:17:21;6.80;99.90
4187;DHT22;2107;52.306;10.484;2022-11-03T05:19:49;6.80;99.90
4187;DHT22;2107;52.306;10.484;2022-11-03T05:22:20;6.90;99.90
4187;DHT22;2107;52.306;10.484;2022-11-03T05:24:50;6.80;99.90
4187;DHT22;2107;52.306;10.484;2022-11-03T05:27:20;6.80;99.90
4187;DHT22;2107;52.306;10.484;2022-11-03T05:29:49;6.70;99.90
4187;DHT22;2107;52.306;10.484;2022-11-03T05:32:20;6.70;99.90
4187;DHT22;2107;52.306;10.484;2022-11-03T05:34:49;6.70;99.90
4187;DHT22;2107;52.306;10.484;2022-11-03T05:37:25;6.80;99.90
4187;DHT22;2107;52.306;10.484;2022-11-03T05:39:55;6.80;99.90
4187;DHT22;2107;52.306;10.484;2022-11-03T05:42:29;7.00;99.90
4187;DHT22;2107;52.306;10.484;2022-11-03T05:44:57;6.90;99.90
4187;DHT22;2107;52.306;10.484;2022-11-03T05:47:31;7.00;99.90
4187;DHT22;2107;52.306;10.484;2022-11-03T05:50:10;7.00;99.90
4187;DHT22;2107;52.306;10.484;2022-11-03T05:52:43;7.00;99.90
4187;DHT22;2107;52.306;10.484;2022-11-03T05:55:21;7.10;99.90
4187;DHT22;2107;52.306;10.484;2022-11-03T05:57:50;7.00;99.90
4187;DHT22;2107;52.306;10.484;2022-11-03T06:00:26;6.90;99.90
4187;DHT22;2107;52.306;10.484;2022-11-03T06:02:54;6.90;99.90
4187;DHT22;2107;52.306;10.484;2022-11-03T06:05:22;6.70;99.90
4187;DHT22;2107;52.306;10.484;2022-11-03T06:07:53;6.60;99.90
4187;DHT22;2107;52.306;10.484;2022-11-03T06:10:23;6.50;99.90
4187;DHT22;2107;52.306;10.484;2022-11-03T06:12:53;6.40;99.90
4187;DHT22;2107;52.306;10.484;2022-11-03T06:15:29;6.30;99.90
4187;DHT22;2107;52.306;10.484;2022-11-03T06:17:57;6.30;99.90
4187;DHT22;2107;52.306;10.484;2022-11-03T06:20:24;6.40;99.90
4187;DHT22;2107;52.306;10.484;2022-11-03T06:22:54;6.40;99.90
4187;DHT22;2107;52.306;10.484;2022-11-03T06:25:27;6.40;99.90
4187;DHT22;2107;52.306;10.484;2022-11-03T06:27:58;6.30;99.90
4187;DHT22;2107;52.306;10.484;2022-11-03T06:30:27;6.30;99.90
4187;DHT22;2107;52.306;10.484;2022-11-03T06:32:57;6.40;99.90
4187;DHT22;2107;52.306;10.484;2022-11-03T06:35:25;6.50;99.90
4187;DHT22;2107;52.306;10.484;2022-11-03T06:37:55;6.60;99.90
4187;DHT22;2107;52.306;10.484;2022-11-03T06:40:32;6.80;99.90
4187;DHT22;2107;52.306;10.484;2022-11-03T06:43:12;6.90;99.90
4187;DHT22;2107;52.306;10.484;2022-11-03T06:45:50;7.00;99.90
4187;DHT22;2107;52.306;10.484;2022-11-03T06:48:22;7.10;99.90
4187;DHT22;2107;52.306;10.484;2022-11-03T06:50:50;7.20;99.90
4187;DHT22;2107;52.306;10.484;2022-11-03T06:53:24;7.20;99.90
4187;DHT22;2107;52.306;10.484;2022-11-03T06:55:51;7.30;99.90
4187;DHT22;2107;52.306;10.484;2022-11-03T06:58:24;7.40;99.90
4187;DHT22;2107;52.306;10.484;2022-11-03T07:00:54;7.50;99.90
4187;DHT22;2107;52.306;10.484;2022-11-03T07:03:24;7.50;99.90
4187;DHT22;2107;52.306;10.484;2022-11-03T07:05:55;7.60;99.90
4187;DHT22;2107;52.306;10.484;2022-11-03T07:08:25;7.70;99.90
4187;DHT22;2107;52.306;10.484;2022-11-03T07:10:59;7.70;99.90
4187;DHT22;2107;52.306;10.484;2022-11-03T07:13:27;7.80;99.90
4187;DHT22;2107;52.306;10.484;2022-11-03T07:15:54;7.90;99.90
4187;DHT22;2107;52.306;10.484;2022-11-03T07:18:24;7.90;99.90
4187;DHT22;2107;52.306;10.484;2022-11-03T07:20:52;8.00;99.90
4187;DHT22;2107;52.306;10.484;2022-11-03T07:23:22;8.10;99.90
4187;DHT22;2107;52.306;10.484;2022-11-03T07:25:53;8.20;99.90
4187;DHT22;2107;52.306;10.484;2022-11-03T07:28:23;8.30;99.90
4187;DHT22;2107;52.306;10.484;2022-11-03T07:30:51;8.30;99.90
4187;DHT22;2107;52.306;10.484;2022-11-03T07:33:20;8.40;99.90
4187;DHT22;2107;52.306;10.484;2022-11-03T07:35:48;8.50;99.90
4187;DHT22;2107;52.306;10.484;2022-11-03T07:38:19;8.50;99.90
4187;DHT22;2107;52.306;10.484;2022-11-03T07:40:47;8.60;99.90
4187;DHT22;2107;52.306;10.484;2022-11-03T07:43:21;8.80;99.90
4187;DHT22;2107;52.306;10.484;2022-11-03T07:45:51;8.80;99.90
4187;DHT22;2107;52.306;10.484;2022-11-03T07:48:21;8.90;99.90
4187;DHT22;2107;52.306;10.484;2022-11-03T07:50:50;9.00;99.90
4187;DHT22;2107;52.306;10.484;2022-11-03T07:53:29;9.00;99.90
4187;DHT22;2107;52.306;10.484;2022-11-03T07:55:59;9.00;99.90
4187;DHT22;2107;52.306;10.484;2022-11-03T07:58:37;9.10;99.90
4187;DHT22;2107;52.306;10.484;2022-11-03T08:01:19;9.10;99.90
4187;DHT22;2107;52.306;10.484;2022-11-03T08:03:48;9.20;99.90
4187;DHT22;2107;52.306;10.484;2022-11-03T08:06:15;9.20;99.90
4187;DHT22;2107;52.306;10.484;2022-11-03T08:08:42;9.30;99.90
4187;DHT22;2107;52.306;10.484;2022-11-03T08:11:08;9.40;99.90
4187;DHT22;2107;52.306;10.484;2022-11-03T08:13:38;9.50;99.90
4187;DHT22;2107;52.306;10.484;2022-11-03T08:16:05;9.60;99.90
4187;DHT22;2107;52.306;10.484;2022-11-03T08:18:32;9.50;99.90
4187;DHT22;2107;52.306;10.484;2022-11-03T08:21:01;9.60;99.90
4187;DHT22;2107;52.306;10.484;2022-11-03T08:23:31;9.60;99.90
4187;DHT22;2107;52.306;10.484;2022-11-03T08:25:58;9.60;99.90
4187;DHT22;2107;52.306;10.484;2022-11-03T08:28:24;9.60;99.90
4187;DHT22;2107;52.306;10.484;2022-11-03T08:30:56;9.70;99.90
4187;DHT22;2107;52.306;10.484;2022-11-03T08:33:26;9.70;99.90
4187;DHT22;2107;52.306;10.484;2022-11-03T08:35:53;9.90;99.90
4187;DHT22;2107;52.306;10.484;2022-11-03T08:38:20;9.90;99.90
4187;DHT22;2107;52.306;10.484;2022-11-03T08:40:47;10.00;99.90
4187;DHT22;2107;52.306;10.484;2022-11-03T08:43:13;10.00;99.90
4187;DHT22;2107;52.306;10.484;2022-11-03T08:45:40;9.90;99.90
4187;DHT22;2107;52.306;10.484;2022-11-03T08:48:08;10.00;99.90
4187;DHT22;2107;52.306;10.484;2022-11-03T08:50:35;10.00;99.90
4187;DHT22;2107;52.306;10.484;2022-11-03T08:53:02;10.20;99.90
4187;DHT22;2107;52.306;10.484;2022-11-03T08:55:29;10.30;99.90
4187;DHT22;2107;52.306;10.484;2022-11-03T08:57:56;10.30;99.90
4187;DHT22;2107;52.306;10.484;2022-11-03T09:00:23;10.40;99.90
4187;DHT22;2107;52.306;10.484;2022-11-03T09:02:50;10.50;99.90
4187;DHT22;2107;52.306;10.484;2022-11-03T09:05:18;10.60;99.90
4187;DHT22;2107;52.306;10.484;2022-11-03T09:07:45;10.80;99.90
4187;DHT22;2107;52.306;10.484;2022-11-03T09:10:12;11.00;99.90
4187;DHT22;2107;52.306;10.484;2022-11-03T09:12:39;11.20;99.90
4187;DHT22;2107;52.306;10.484;2022-11-03T09:15:06;11.20;99.90
4187;DHT22;2107;52.306;10.484;2022-11-03T09:17:33;11.30;99.90
4187;DHT22;2107;52.306;10.484;2022-11-03T09:20:00;11.50;99.90
4187;DHT22;2107;52.306;10.484;2022-11-03T09:22:28;11.60;99.90
4187;DHT22;2107;52.306;10.484;2022-11-03T09:24:55;11.80;99.90
4187;DHT22;2107;52.306;10.484;2022-11-03T09:27:23;11.80;99.90
4187;DHT22;2107;52.306;10.484;2022-11-03T09:29:50;11.90;99.90
4187;DHT22;2107;52.306;10.484;2022-11-03T09:32:17;12.00;99.90
4187;DHT22;2107;52.306;10.484;2022-11-03T09:34:44;12.10;99.90
4187;DHT22;2107;52.306;10.484;2022-11-03T09:37:10;12.00;99.90
4187;DHT22;2107;52.306;10.484;2022-11-03T09:39:39;12.00;99.90
4187;DHT22;2107;52.306;10.484;2022-11-03T09:42:06;12.30;99.90
4187;DHT22;2107;52.306;10.484;2022-11-03T09:44:33;12.10;99.90
4187;DHT22;2107;52.306;10.484;2022-11-03T09:47:02;12.10;99.90
4187;DHT22;2107;52.306;10.484;2022-11-03T09:49:31;12.50;99.90
4187;DHT22;2107;52.306;10.484;2022-11-03T09:51:58;12.50;99.90
4187;DHT22;2107;52.306;10.484;2022-11-03T09:54:26;12.50;99.90
4187;DHT22;2107;52.306;10.484;2022-11-03T09:56:56;12.70;99.90
4187;DHT22;2107;52.306;10.484;2022-11-03T09:59:24;12.70;99.90
4187;DHT22;2107;52.306;10.484;2022-11-03T10:01:52;12.80;99.90
4187;DHT22;2107;52.306;10.484;2022-11-03T10:04:23;12.70;99.90
4187;DHT22;2107;52.306;10.484;2022-11-03T10:06:51;12.80;99.90
4187;DHT22;2107;52.306;10.484;2022-11-03T10:09:19;13.10;99.90
4187;DHT22;2107;52.306;10.484;2022-11-03T10:11:47;13.20;99.90
4187;DHT22;2107;52.306;10.484;2022-11-03T10:14:17;13.40;99.90
4187;DHT22;2107;52.306;10.484;2022-11-03T10:16:50;13.10;99.90
4187;DHT22;2107;52.306;10.484;2022-11-03T10:19:18;13.60;99.90
4187;DHT22;2107;52.306;10.484;2022-11-03T10:21:44;13.80;99.90
4187;DHT22;2107;52.306;10.484;2022-11-03T10:24:12;14.10;99.90
4187;DHT22;2107;52.306;10.484;2022-11-03T10:26:43;14.70;99.90
4187;DHT22;2107;52.306;10.484;2022-11-03T10:29:18;15.00;99.90
4187;DHT22;2107;52.306;10.484;2022-11-03T10:31:47;14.80;99.90
4187;DHT22;2107;52.306;10.484;2022-11-03T10:34:30;14.90;99.90
4187;DHT22;2107;52.306;10.484;2022-11-03T10:37:22;14.70;99.90
4187;DHT22;2107;52.306;10.484;2022-11-03T10:39:51;14.30;99.90
4187;DHT22;2107;52.306;10.484;2022-11-03T10:42:20;14.10;99.90
4187;DHT22;2107;52.306;10.484;2022-11-03T10:44:51;13.80;99.90
4187;DHT22;2107;52.306;10.484;2022-11-03T10:47:30;13.70;99.90
4187;DHT22;2107;52.306;10.484;2022-11-03T10:49:58;13.60;99.90
4187;DHT22;2107;52.306;10.484;2022-11-03T10:52:27;13.60;99.90
4187;DHT22;2107;52.306;10.484;2022-11-03T10:54:56;13.70;99.90
4187;DHT22;2107;52.306;10.484;2022-11-03T10:57:25;13.90;99.90
4187;DHT22;2107;52.306;10.484;2022-11-03T10:59:54;14.10;99.90
4187;DHT22;2107;52.306;10.484;2022-11-03T11:02:23;14.40;99.90
4187;DHT22;2107;52.306;10.484;2022-11-03T11:04:56;14.50;99.90
4187;DHT22;2107;52.306;10.484;2022-11-03T11:07:31;14.60;99.90
4187;DHT22;2107;52.306;10.484;2022-11-03T11:10:05;14.50;99.90
4187;DHT22;2107;52.306;10.484;2022-11-03T11:12:33;14.40;99.90
4187;DHT22;2107;52.306;10.484;2022-11-03T11:15:05;14.60;99.90
4187;DHT22;2107;52.306;10.484;2022-11-03T11:17:50;14.90;99.90
4187;DHT22;2107;52.306;10.484;2022-11-03T11:20:36;14.60;99.90
4187;DHT22;2107;52.306;10.484;2022-11-03T11:38:55;14.70;99.90
4187;DHT22;2107;52.306;10.484;2022-11-03T11:44:45;14.40;99.90
4187;DHT22;2107;52.306;10.484;2022-11-03T11:47:21;14.50;99.90
4187;DHT22;2107;52.306;10.484;2022-11-03T11:49:50;14.50;99.90
4187;DHT22;2107;52.306;10.484;2022-11-03T11:52:26;14.50;99.90
4187;DHT22;2107;52.306;10.484;2022-11-03T11:54:54;14.50;99.90
4187;DHT22;2107;52.306;10.484;2022-11-03T11:57:21;14.30;99.90
4187;DHT22;2107;52.306;10.484;2022-11-03T11:59:50;14.50;99.90
4187;DHT22;2107;52.306;10.484;2022-11-03T12:02:19;14.40;99.90
4187;DHT22;2107;52.306;10.484;2022-11-03T12:04:50;14.40;99.90
4187;DHT22;2107;52.306;10.484;2022-11-03T12:07:30;14.30;99.90
4187;DHT22;2107;52.306;10.484;2022-11-03T12:10:07;14.40;99.90
4187;DHT22;2107;52.306;10.484;2022-11-03T12:12:34;14.20;99.90
4187;DHT22;2107;52.306;10.484;2022-11-03T12:15:01;14.30;99.90
4187;DHT22;2107;52.306;10.484;2022-11-03T12:17:31;14.40;99.90
4187;DHT22;2107;52.306;10.484;2022-11-03T12:19:58;14.40;99.90
4187;DHT22;2107;52.306;10.484;2022-11-03T12:22:39;14.50;99.90
4187;DHT22;2107;52.306;10.484;2022-11-03T12:25:33;14.50;99.90
4187;DHT22;2107;52.306;10.484;2022-11-03T12:28:00;14.30;99.90
4187;DHT22;2107;52.306;10.484;2022-11-03T12:30:27;14.30;99.90
4187;DHT22;2107;52.306;10.484;2022-11-03T12:32:54;14.30;99.90
4187;DHT22;2107;52.306;10.484;2022-11-03T12:35:22;14.40;99.90
4187;DHT22;2107;52.306;10.484;2022-11-03T12:37:49;14.30;99.90
4187;DHT22;2107;52.306;10.484;2022-11-03T12:40:16;14.30;99.90
4187;DHT22;2107;52.306;10.484;2022-11-03T12:42:44;14.20;99.90
4187;DHT22;2107;52.306;10.484;2022-11-03T12:45:11;14.20;99.90
4187;DHT22;2107;52.306;10.484;2022-11-03T12:47:39;14.10;99.90
4187;DHT22;2107;52.306;10.484;2022-11-03T12:50:06;14.10;99.90
4187;DHT22;2107;52.306;10.484;2022-11-03T12:52:33;14.10;99.90
4187;DHT22;2107;52.306;10.484;2022-11-03T12:55:00;14.00;99.90
4187;DHT22;2107;52.306;10.484;2022-11-03T12:57:27;14.10;99.90
4187;DHT22;2107;52.306;10.484;2022-11-03T12:59:55;14.10;99.90
4187;DHT22;2107;52.306;10.484;2022-11-03T13:02:22;14.10;99.90
4187;DHT22;2107;52.306;10.484;2022-11-03T13:04:49;14.10;99.90
4187;DHT22;2107;52.306;10.484;2022-11-03T13:07:16;14.10;99.90
4187;DHT22;2107;52.306;10.484;2022-11-03T13:09:43;14.00;99.90
4187;DHT22;2107;52.306;10.484;2022-11-03T13:12:11;13.90;99.90
4187;DHT22;2107;52.306;10.484;2022-11-03T13:14:57;13.80;99.90
4187;DHT22;2107;52.306;10.484;2022-11-03T13:17:24;13.70;99.90
4187;DHT22;2107;52.306;10.484;2022-11-03T13:19:51;13.60;99.90
4187;DHT22;2107;52.306;10.484;2022-11-03T13:22:18;13.60;99.90
4187;DHT22;2107;52.306;10.484;2022-11-03T13:24:45;13.60;99.90
4187;DHT22;2107;52.306;10.484;2022-11-03T13:27:12;13.50;99.90
4187;DHT22;2107;52.306;10.484;2022-11-03T13:29:38;13.50;99.90
4187;DHT22;2107;52.306;10.484;2022-11-03T13:32:07;13.50;99.90
4187;DHT22;2107;52.306;10.484;2022-11-03T13:34:34;13.40;99.90
4187;DHT22;2107;52.306;10.484;2022-11-03T13:37:01;13.40;99.90
4187;DHT22;2107;52.306;10.484;2022-11-03T13:39:29;13.40;99.90
4187;DHT22;2107;52.306;10.484;2022-11-03T13:41:56;13.40;99.90
4187;DHT22;2107;52.306;10.484;2022-11-03T13:44:23;13.40;99.90
4187;DHT22;2107;52.306;10.484;2022-11-03T13:46:50;13.40;99.90
4187;DHT22;2107;52.306;10.484;2022-11-03T13:49:18;13.40;99.90
4187;DHT22;2107;52.306;10.484;2022-11-03T13:51:47;13.40;99.90
4187;DHT22;2107;52.306;10.484;2022-11-03T13:54:13;13.30;99.90
4187;DHT22;2107;52.306;10.484;2022-11-03T13:56:40;13.20;99.90
4187;DHT22;2107;52.306;10.484;2022-11-03T13:59:07;13.20;99.90
4187;DHT22;2107;52.306;10.484;2022-11-03T14:01:34;13.10;99.90
4187;DHT22;2107;52.306;10.484;2022-11-03T14:04:01;13.10;99.90
4187;DHT22;2107;52.306;10.484;2022-11-03T14:06:29;13.10;99.90
4187;DHT22;2107;52.306;10.484;2022-11-03T14:08:56;13.00;99.90
4187;DHT22;2107;52.306;10.484;2022-11-03T14:11:23;13.10;99.90
4187;DHT22;2107;52.306;10.484;2022-11-03T14:14:08;13.10;99.90
4187;DHT22;2107;52.306;10.484;2022-11-03T14:16:34;13.00;99.90
4187;DHT22;2107;52.306;10.484;2022-11-03T14:19:01;13.10;99.90
4187;DHT22;2107;52.306;10.484;2022-11-03T14:21:29;13.00;99.90
4187;DHT22;2107;52.306;10.484;2022-11-03T14:23:56;13.00;99.90
4187;DHT22;2107;52.306;10.484;2022-11-03T14:26:23;12.90;99.90
4187;DHT22;2107;52.306;10.484;2022-11-03T14:28:50;12.90;99.90
4187;DHT22;2107;52.306;10.484;2022-11-03T14:31:17;12.90;99.90
4187;DHT22;2107;52.306;10.484;2022-11-03T14:33:44;12.80;99.90
4187;DHT22;2107;52.306;10.484;2022-11-03T14:36:11;12.80;99.90
4187;DHT22;2107;52.306;10.484;2022-11-03T14:38:39;12.70;99.90
4187;DHT22;2107;52.306;10.484;2022-11-03T14:41:06;12.70;99.90
4187;DHT22;2107;52.306;10.484;2022-11-03T14:43:50;12.70;99.90
4187;DHT22;2107;52.306;10.484;2022-11-03T14:46:17;12.60;99.90
4187;DHT22;2107;52.306;10.484;2022-11-03T14:48:44;12.50;99.90
4187;DHT22;2107;52.306;10.484;2022-11-03T14:51:11;12.50;99.90
4187;DHT22;2107;52.306;10.484;2022-11-03T14:53:39;12.50;99.90
4187;DHT22;2107;52.306;10.484;2022-11-03T14:56:07;12.50;99.90
4187;DHT22;2107;52.306;10.484;2022-11-03T14:58:33;12.50;99.90
4187;DHT22;2107;52.306;10.484;2022-11-03T15:01:00;12.50;99.90
4187;DHT22;2107;52.306;10.484;2022-11-03T15:03:27;12.40;99.90
4187;DHT22;2107;52.306;10.484;2022-11-03T15:05:54;12.50;99.90
4187;DHT22;2107;52.306;10.484;2022-11-03T15:08:22;12.40;99.90
4187;DHT22;2107;52.306;10.484;2022-11-03T15:10:51;12.40;99.90
4187;DHT22;2107;52.306;10.484;2022-11-03T15:13:18;12.30;99.90
4187;DHT22;2107;52.306;10.484;2022-11-03T15:15:45;12.30;99.90
4187;DHT22;2107;52.306;10.484;2022-11-03T15:18:12;12.30;99.90
4187;DHT22;2107;52.306;10.484;2022-11-03T15:20:39;12.30;99.90
4187;DHT22;2107;52.306;10.484;2022-11-03T15:23:06;12.30;99.90
4187;DHT22;2107;52.306;10.484;2022-11-03T15:25:33;12.40;99.90
4187;DHT22;2107;52.306;10.484;2022-11-03T15:28:03;12.40;99.90
4187;DHT22;2107;52.306;10.484;2022-11-03T15:30:30;12.30;99.90
4187;DHT22;2107;52.306;10.484;2022-11-03T15:32:57;12.40;99.90
4187;DHT22;2107;52.306;10.484;2022-11-03T15:35:24;12.40;99.90
4187;DHT22;2107;52.306;10.484;2022-11-03T15:37:51;12.40;99.90
4187;DHT22;2107;52.306;10.484;2022-11-03T15:40:19;12.40;99.90
4187;DHT22;2107;52.306;10.484;2022-11-03T15:42:46;12.40;99.90
4187;DHT22;2107;52.306;10.484;2022-11-03T15:45:14;12.30;99.90
4187;DHT22;2107;52.306;10.484;2022-11-03T15:47:41;12.40;99.90
4187;DHT22;2107;52.306;10.484;2022-11-03T15:50:09;12.40;99.90
4187;DHT22;2107;52.306;10.484;2022-11-03T15:52:36;12.40;99.90
4187;DHT22;2107;52.306;10.484;2022-11-03T15:55:04;12.30;99.90
4187;DHT22;2107;52.306;10.484;2022-11-03T15:57:32;12.40;99.90
4187;DHT22;2107;52.306;10.484;2022-11-03T15:59:59;12.50;99.90
4187;DHT22;2107;52.306;10.484;2022-11-03T16:02:27;12.50;99.90
4187;DHT22;2107;52.306;10.484;2022-11-03T16:04:54;12.50;99.90
4187;DHT22;2107;52.306;10.484;2022-11-03T16:07:21;12.30;99.90
4187;DHT22;2107;52.306;10.484;2022-11-03T16:09:48;12.40;99.90
4187;DHT22;2107;52.306;10.484;2022-11-03T16:12:15;12.40;99.90
4187;DHT22;2107;52.306;10.484;2022-11-03T16:14:42;12.40;99.90
4187;DHT22;2107;52.306;10.484;2022-11-03T16:17:11;12.50;99.90
4187;DHT22;2107;52.306;10.484;2022-11-03T16:19:39;12.60;99.90
4187;DHT22;2107;52.306;10.484;2022-11-03T16:22:10;12.60;99.90
4187;DHT22;2107;52.306;10.484;2022-11-03T16:24:37;12.50;99.90
4187;DHT22;2107;52.306;10.484;2022-11-03T16:27:05;12.50;99.90
4187;DHT22;2107;52.306;10.484;2022-11-03T16:29:34;12.50;99.90